Aviation Digital Data Service (ADDS)

Output produced by TAFs form (1739 UTC 21 April 2018)
found at http://aviationweather.gov/adds/tafs/
 
TAF RJSF 211705Z 2118/2300 35008KT 9999 FEW030 
     TEMPO 2215/2221 3000 BR FEW001 BKN003